Soleil Laural Canyon Historical Data
 
Daily Summary for August 18, 2018 Units:  English    Metric   Both
Daily Weekly Monthly Yearly Custom
  Current: High: Low: Average:
Temperature: 82.5 °F 84.2 °F 73 °F 76.7 °F
Dew Point: 76.8 °F 78 °F 71.2 °F 73.2 °F
Humidity: 83% 95% 75% 89%
Wind Speed: 3.5mph 11.5mph 0mph 3.9mph
Wind Gust: 1.6mph 7.4mph - -
WindSW - - WSW
Pressure: 29.89 in 30.05 in 29.88 in -
Precipitation: 0.26 in      
Historical Graphs
 
 
Tabular Data for August 18, 2018
Time Temperature Dew Point Pressure Wind Wind Speed Wind Gust Humidity Rainfall Rate (Hourly) solar
00:04 75.1 °F 72.3 °F 30.05 in Calm     91% 0 in 0.00 W/m2
00:09 75.1 °F 72.6 °F 30.05 in Calm     92% 0 in 0.00 W/m2
00:14 75.1 °F 72.6 °F 30.05 in Calm     92% 0 in 0.00 W/m2
00:19 75.1 °F 72.6 °F 30.05 in Calm     92% 0 in 0.00 W/m2
00:24 75.1 °F 72.6 °F 30.05 in Calm     92% 0 in 0.00 W/m2
00:29 75.1 °F 72.6 °F 30.05 in Calm     92% 0 in 0.00 W/m2
00:34 75.1 °F 72.6 °F 30.04 in Calm     92% 0 in 0.00 W/m2
00:39 75 °F 72.5 °F 30.04 in Calm     92% 0 in 0.00 W/m2
00:44 75 °F 72.5 °F 30.04 in Calm     92% 0 in 0.00 W/m2
00:49 74.9 °F 72.4 °F 30.04 in Calm     92% 0 in 0.00 W/m2
00:54 74.9 °F 72.4 °F 30.04 in Calm     92% 0 in 0.00 W/m2
00:59 74.8 °F 72.3 °F 30.04 in Calm     92% 0 in 0.00 W/m2
01:04 74.8 °F 72.3 °F 30.04 in Calm     92% 0 in 0.00 W/m2
01:09 74.7 °F 72.2 °F 30.04 in Calm     92% 0 in 0.00 W/m2
01:14 74.7 °F 72.2 °F 30.04 in Calm     92% 0 in 0.00 W/m2
01:19 74.6 °F 72.1 °F 30.04 in Calm     92% 0 in 0.00 W/m2
01:24 74.6 °F 72.1 °F 30.04 in Calm     92% 0 in 0.00 W/m2
01:29 74.6 °F 72.1 °F 30.03 in Calm     92% 0 in 0.00 W/m2
01:34 74.6 °F 72.1 °F 30.03 in Calm     92% 0 in 0.00 W/m2
01:39 74.5 °F 72.3 °F 30.03 in Calm     93% 0 in 0.00 W/m2
01:44 74.5 °F 72.3 °F 30.03 in Calm     93% 0 in 0.00 W/m2
01:49 74.4 °F 72.2 °F 30.03 in Calm     93% 0 in 0.00 W/m2
01:54 74.4 °F 72.2 °F 30.03 in Calm     93% 0 in 0.00 W/m2
01:59 74.4 °F 72.2 °F 30.03 in Calm     93% 0 in 0.00 W/m2
02:04 74.3 °F 72.1 °F 30.03 in Calm     93% 0 in 0.00 W/m2
02:09 74.3 °F 72.1 °F 30.03 in Calm     93% 0 in 0.00 W/m2
02:14 74.2 °F 72 °F 30.03 in Calm     93% 0 in 0.00 W/m2
02:19 74.2 °F 72 °F 30.03 in Calm     93% 0 in 0.00 W/m2
02:24 74.1 °F 71.9 °F 30.03 in Calm     93% 0 in 0.00 W/m2
02:29 74 °F 72.2 °F 30.03 in Calm     94% 0 in 0.00 W/m2
02:34 74 °F 72.2 °F 30.03 in Calm     94% 0 in 0.00 W/m2
02:39 73.9 °F 72.1 °F 30.03 in Calm     94% 0 in 0.00 W/m2
02:44 73.9 °F 72.1 °F 30.03 in Calm     94% 0 in 0.00 W/m2
02:49 73.9 °F 72.1 °F 30.03 in WSW 2.3 mph 1.1 mph 94% 0 in 0.00 W/m2
02:54 73.8 °F 72 °F 30.03 in WSW 3.5 mph 1.1 mph 94% 0 in 0.00 W/m2
02:59 73.8 °F 72.3 °F 30.03 in West 3.5 mph 1.7 mph 95% 0 in 0.00 W/m2
03:04 73.7 °F 72.2 °F 30.03 in WSW 4 mph 2.1 mph 95% 0 in 0.00 W/m2
03:09 73.7 °F 72.2 °F 30.02 in West 3.5 mph 1.7 mph 95% 0 in 0.00 W/m2
03:14 73.6 °F 72.1 °F 30.02 in West 3 mph 1.6 mph 95% 0 in 0.00 W/m2
03:19 73.6 °F 72.1 °F 30.02 in West 4.6 mph 2.9 mph 95% 0 in 0.00 W/m2
03:24 73.6 °F 72.1 °F 30.02 in SW 4.6 mph 2.4 mph 95% 0 in 0.00 W/m2
03:29 73.6 °F 72.1 °F 30.02 in WSW 5.8 mph 2.9 mph 95% 0 in 0.00 W/m2
03:34 73.6 °F 72.1 °F 30.02 in West 3.5 mph 1.4 mph 95% 0 in 0.00 W/m2
03:39 73.6 °F 72.1 °F 30.02 in West 5 mph 2.9 mph 95% 0 in 0.00 W/m2
03:44 73.6 °F 72.1 °F 30.02 in West 4.6 mph 3.2 mph 95% 0 in 0.00 W/m2
03:49 73.7 °F 72.2 °F 30.02 in WSW 4.6 mph 2.3 mph 95% 0 in 0.00 W/m2
03:54 73.7 °F 72.2 °F 30.02 in WSW 5 mph 3.6 mph 95% 0 in 0.00 W/m2
03:59 73.7 °F 72.2 °F 30.02 in West 9.2 mph 5.3 mph 95% 0 in 0.00 W/m2
04:04 73.7 °F 72.2 °F 30.02 in WSW 5.8 mph 4 mph 95% 0 in 0.00 W/m2
04:09 73.7 °F 72.2 °F 30.02 in West 4.6 mph 2.4 mph 95% 0 in 0.00 W/m2
04:14 73.6 °F 72.1 °F 30.02 in WSW 6.9 mph 2.1 mph 95% 0 in 0.00 W/m2
04:19 73.6 °F 72.1 °F 30.01 in WSW 5.8 mph 1.9 mph 95% 0 in 0.00 W/m2
04:24 73.6 °F 71.8 °F 30.01 in WSW 10.4 mph 4.7 mph 94% 0 in 0.00 W/m2
04:29 73.5 °F 71.7 °F 30.02 in West 5.8 mph 2.9 mph 94% 0 in 0.00 W/m2
04:34 73.5 °F 71.7 °F 30.01 in WSW 3.5 mph 2.4 mph 94% 0 in 0.00 W/m2
04:39 73.5 °F 71.7 °F 30.02 in WSW 4.6 mph 3.5 mph 94% 0 in 0.00 W/m2
04:44 73.4 °F 71.6 °F 30.01 in WSW 4.6 mph 2.9 mph 94% 0 in 0.00 W/m2
04:49 73.4 °F 71.6 °F 30.01 in WSW 3.5 mph 1.3 mph 94% 0 in 0.00 W/m2
04:54 73.3 °F 71.5 °F 30.01 in WSW 3.5 mph 2.7 mph 94% 0 in 0.00 W/m2
04:59 73.3 °F 71.5 °F 30.01 in WSW 3.5 mph 0.6 mph 94% 0 in 0.00 W/m2
05:04 73.3 °F 71.5 °F 30.01 in WSW 2.3 mph 1.1 mph 94% 0 in 0.00 W/m2
05:09 73.3 °F 71.5 °F 30.01 in WSW 3.5 mph 2.4 mph 94% 0 in 0.00 W/m2
05:14 73.2 °F 71.4 °F 30.02 in Calm     94% 0 in 0.00 W/m2
05:19 73.2 °F 71.4 °F 30.01 in SW 6.9 mph 2.6 mph 94% 0 in 0.00 W/m2
05:24 73.2 °F 71.4 °F 30.01 in WSW 2.3 mph 0.8 mph 94% 0 in 0.00 W/m2
05:29 73.2 °F 71.4 °F 30.01 in West 2.3 mph 1.3 mph 94% 0 in 0.00 W/m2
05:34 73.2 °F 71.4 °F 30.01 in WSW 6.9 mph 3.6 mph 94% 0 in 0.00 W/m2
05:39 73.1 °F 71.3 °F 30.01 in West 3.5 mph 2.5 mph 94% 0 in 0.00 W/m2
05:44 73.2 °F 71.4 °F 30.02 in West 3.5 mph 1.7 mph 94% 0 in 0.00 W/m2
05:49 73.1 °F 71.3 °F 30.02 in WSW 3.5 mph 4 mph 94% 0 in 0.00 W/m2
05:54 73.1 °F 71.3 °F 30.02 in WNW 5.8 mph 3.9 mph 94% 0 in 0.00 W/m2
05:59 73.1 °F 71.3 °F 30.02 in West 3.5 mph 2 mph 94% 0 in 0.00 W/m2
06:04 73.1 °F 71.3 °F 30.02 in West 4 mph 2.8 mph 94% 0 in 0.00 W/m2
06:09 73.1 °F 71.3 °F 30.02 in West 3.5 mph 1.6 mph 94% 0 in 0.00 W/m2
06:14 73.1 °F 71.3 °F 30.02 in West 2.3 mph 0.3 mph 94% 0 in 0.00 W/m2
06:19 73.1 °F 71.3 °F 30.02 in WSW 4.6 mph 2.4 mph 94% 0 in 0.00 W/m2
06:24 73.1 °F 71.3 °F 30.02 in WSW 3 mph 0.7 mph 94% 0 in 0.00 W/m2
06:29 73.1 °F 71.3 °F 30.02 in WSW 2.3 mph 1.8 mph 94% 0 in 0.00 W/m2
06:34 73.1 °F 71.3 °F 30.02 in West 4.6 mph 2.9 mph 94% 0 in 0.00 W/m2
06:39 73.1 °F 71.3 °F 30.02 in WSW 3.5 mph 1.5 mph 94% 0 in 0.00 W/m2
06:44 73.1 °F 71.3 °F 30.02 in Calm     94% 0 in 0.00 W/m2
06:49 73.1 °F 71.3 °F 30.02 in Calm     94% 0 in 0.00 W/m2
06:54 73.1 °F 71.3 °F 30.02 in Calm     94% 0 in 0.00 W/m2
06:59 73.1 °F 71.3 °F 30.02 in Calm     94% 0 in 0.00 W/m2
07:04 73.1 °F 71.3 °F 30.03 in West 3.5 mph 1.8 mph 94% 0 in 0.00 W/m2
07:09 73.1 °F 71.3 °F 30.03 in WSW 3.5 mph 2.9 mph 94% 0 in 0.00 W/m2
07:14 73.1 °F 71.3 °F 30.02 in WSW 3.5 mph 1.5 mph 94% 0 in 5.00 W/m2
07:19 73 °F 71.2 °F 30.02 in WSW 3.5 mph 2.4 mph 94% 0 in 7.00 W/m2
07:24 73 °F 71.2 °F 30.02 in West 3.5 mph 1.3 mph 94% 0 in 9.00 W/m2
07:29 73 °F 71.2 °F 30.03 in WSW 3.5 mph 1.1 mph 94% 0 in 11.00 W/m2
07:34 73 °F 71.2 °F 30.03 in West 4.6 mph 2.1 mph 94% 0 in 12.00 W/m2
07:39 73 °F 71.2 °F 30.03 in West 3.5 mph 1.9 mph 94% 0 in 9.00 W/m2
07:44 73 °F 71.2 °F 30.03 in WNW 3.5 mph 2.2 mph 94% 0 in 9.00 W/m2
07:49 73 °F 71.2 °F 30.03 in West 1.2 mph 0.2 mph 94% 0 in 11.00 W/m2
07:54 73 °F 71.2 °F 30.03 in WSW 4.6 mph 1.7 mph 94% 0 in 40.00 W/m2
07:59 73 °F 71.2 °F 30.03 in West 3.5 mph 2.1 mph 94% 0 in 49.00 W/m2
08:04 73.1 °F 71.3 °F 30.03 in West 3.5 mph 2.8 mph 94% 0 in 46.00 W/m2
08:09 73.1 °F 71.3 °F 30.03 in West 3.5 mph 2.1 mph 94% 0 in 42.00 W/m2
08:14 73.1 °F 71.3 °F 30.03 in West 3.5 mph 2.2 mph 94% 0 in 74.00 W/m2
08:19 73.2 °F 71.4 °F 30.03 in NW 3.5 mph 2.1 mph 94% 0 in 44.00 W/m2
08:24 73.3 °F 71.5 °F 30.03 in SW 3.5 mph 2 mph 94% 0 in 42.00 W/m2
08:29 73.4 °F 71.6 °F 30.03 in WSW 2.3 mph   94% 0 in 46.00 W/m2
08:34 73.4 °F 71.6 °F 30.03 in WSW 3.5 mph 2.7 mph 94% 0 in 62.00 W/m2
08:39 73.5 °F 71.7 °F 30.03 in WSW 3.5 mph 1 mph 94% 0 in 102.00 W/m2
08:44 73.6 °F 71.8 °F 30.02 in WSW 2.3 mph 1.1 mph 94% 0 in 102.00 W/m2
08:49 73.7 °F 71.9 °F 30.03 in West 3.5 mph 1.7 mph 94% 0 in 118.00 W/m2
08:54 73.8 °F 72 °F 30.03 in West 3.5 mph 2.3 mph 94% 0 in 107.00 W/m2
08:59 73.9 °F 72.1 °F 30.03 in West 7 mph 4 mph 94% 0 in 104.00 W/m2
09:04 74 °F 72.2 °F 30.03 in WSW 4 mph 2.2 mph 94% 0 in 98.00 W/m2
09:09 74.1 °F 71.9 °F 30.03 in WSW 3.5 mph 2.6 mph 93% 0 in 83.00 W/m2
09:14 74.2 °F 72 °F 30.03 in West 3.5 mph 2.3 mph 93% 0 in 86.00 W/m2
09:19 74.2 °F 72 °F 30.03 in WSW 9.2 mph 4.2 mph 93% 0 in 91.00 W/m2
09:24 74.3 °F 72.1 °F 30.03 in WSW 4 mph 3 mph 93% 0 in 114.00 W/m2
09:29 74.4 °F 72.2 °F 30.02 in SW 5.8 mph 3.5 mph 93% 0 in 63.00 W/m2
09:34 74.4 °F 72.2 °F 30.02 in West 3.5 mph 2.9 mph 93% 0 in 88.00 W/m2
09:39 74.4 °F 72.2 °F 30.02 in WSW 4 mph 3.3 mph 93% 0 in 74.00 W/m2
09:44 74.4 °F 72.2 °F 30.02 in West 8.1 mph 3.2 mph 93% 0 in 62.00 W/m2
09:49 74.4 °F 72.2 °F 30.02 in WSW 5.8 mph 3.4 mph 93% 0 in 58.00 W/m2
09:54 74.5 °F 72.3 °F 30.02 in West 4 mph 2.8 mph 93% 0 in 111.00 W/m2
09:59 74.5 °F 72.3 °F 30.02 in WNW 4.6 mph 4.5 mph 93% 0 in 153.00 W/m2
10:04 74.8 °F 72.6 °F 30.02 in West 4.6 mph 2.7 mph 93% 0 in 197.00 W/m2
10:09 75.2 °F 72.7 °F 30.02 in West 4.6 mph 3.2 mph 92% 0 in 214.00 W/m2
10:14 75.7 °F 73.2 °F 30.02 in Calm   0.2 mph 92% 0 in 216.00 W/m2
10:19 75.9 °F 73.1 °F 30.02 in WSW 4.6 mph 3.2 mph 91% 0 in 156.00 W/m2
10:24 76 °F 72.9 °F 30.02 in WSW 5.8 mph 3.1 mph 90% 0 in 163.00 W/m2
10:29 76.2 °F 73.1 °F 30.02 in West 4.6 mph 3 mph 90% 0 in 162.00 W/m2
10:34 76.1 °F 73 °F 30.02 in WSW 6.9 mph 3 mph 90% 0 in 195.00 W/m2
10:39 76.2 °F 73.1 °F 30.02 in West 5.8 mph 2.5 mph 90% 0 in 113.00 W/m2
10:44 76.1 °F 73 °F 30.02 in WNW 3.5 mph 3.2 mph 90% 0 in 139.00 W/m2
10:49 76.2 °F 73.4 °F 30.02 in WNW 4.6 mph 3.4 mph 91% 0 in 188.00 W/m2
10:54 76.3 °F 73.1 °F 30.02 in SW 9.2 mph 4 mph 90% 0 in 142.00 W/m2
10:59 76.4 °F 73.2 °F 30.02 in West 5.8 mph 3.9 mph 90% 0 in 179.00 W/m2
11:04 76.6 °F 73.1 °F 30.02 in West 5.8 mph 4.5 mph 89% 0 in 190.00 W/m2
11:09 76.7 °F 73.2 °F 30.02 in West 5.8 mph 2.9 mph 89% 0 in 188.00 W/m2
11:14 77.1 °F 73.6 °F 30.02 in WSW 3.5 mph 2.5 mph 89% 0 in 483.00 W/m2
11:19 78.4 °F 74.2 °F 30.01 in West 6 mph 3.4 mph 87% 0 in 524.00 W/m2
11:24 78.7 °F 74.2 °F 30.01 in WSW 5.8 mph 3.4 mph 86% 0 in 559.00 W/m2
11:29 78.8 °F 73.9 °F 30.01 in West 5.8 mph 4.3 mph 85% 0 in 318.00 W/m2
11:34 79.2 °F 74.3 °F 30.00 in West 5.8 mph 2.7 mph 85% 0 in 476.00 W/m2
11:39 79.4 °F 74.5 °F 30.00 in SW 5.8 mph 3.4 mph 85% 0 in 487.00 W/m2
11:44 80.1 °F 74.5 °F 30.00 in West 9.2 mph 3.8 mph 83% 0 in 336.00 W/m2
11:49 79.7 °F 74.4 °F 30.00 in WSW 3.5 mph 1.9 mph 84% 0 in 346.00 W/m2
11:54 80.3 °F 74.7 °F 30.00 in WSW 4.6 mph 2 mph 83% 0 in 411.00 W/m2
11:59 80.5 °F 74.1 °F 30.00 in WNW 6 mph 3.4 mph 81% 0 in 271.00 W/m2
12:04 79.9 °F 73.9 °F 30.00 in SW 10.4 mph 3.9 mph 82% 0 in 278.00 W/m2
12:09 80 °F 74 °F 30.00 in West 4.6 mph 4.7 mph 82% 0 in 257.00 W/m2
12:14 79.6 °F 73.6 °F 29.99 in West 6.9 mph 4.6 mph 82% 0 in 232.00 W/m2
12:19 79.3 °F 73.7 °F 29.99 in WSW 5.8 mph 4 mph 83% 0 in 258.00 W/m2
12:24 80.2 °F 74.2 °F 29.98 in SW 5.8 mph 2.6 mph 82% 0 in 939.00 W/m2
12:29 82 °F 74.8 °F 29.98 in West 9.2 mph 4 mph 79% 0 in 381.00 W/m2
12:34 81.8 °F 74.6 °F 29.98 in WSW 4.6 mph 1.9 mph 79% 0 in 345.00 W/m2
12:39 81.7 °F 74.5 °F 29.98 in WSW 4 mph 1.8 mph 79% 0 in 316.00 W/m2
12:44 82.3 °F 74.4 °F 29.98 in West 11.5 mph 7.4 mph 77% 0 in 487.00 W/m2
12:49 82.4 °F 74.5 °F 29.98 in SW 9.2 mph 4.7 mph 77% 0 in 250.00 W/m2
12:54 81.9 °F 74.7 °F 29.98 in West 3.5 mph 0.6 mph 79% 0 in 387.00 W/m2
12:59 81.7 °F 74.5 °F 29.98 in SW 5.8 mph 4.2 mph 79% 0 in 429.00 W/m2
13:04 82.3 °F 75.1 °F 29.98 in NW 6 mph 4.9 mph 79% 0 in 445.00 W/m2
13:09 83.5 °F 74.7 °F 29.97 in SW 6.9 mph 4.2 mph 75% 0 in 621.00 W/m2
13:14 83.2 °F 75.6 °F 29.97 in WNW 5.8 mph 1.6 mph 78% 0 in 396.00 W/m2
13:19 82.4 °F 74.8 °F 29.97 in West 5.8 mph 2.5 mph 78% 0 in 237.00 W/m2
13:24 81.9 °F 74.7 °F 29.97 in West 6.9 mph 4.2 mph 79% 0 in 257.00 W/m2
13:29 82.1 °F 74.9 °F 29.97 in WNW 4.6 mph 3.2 mph 79% 0 in 309.00 W/m2
13:34 82.6 °F 74.7 °F 29.97 in WSW 10.4 mph 4.3 mph 77% 0 in 459.00 W/m2
13:39 82.9 °F 74.6 °F 29.96 in West 6.9 mph 4.7 mph 76% 0 in 738.00 W/m2
13:44 83.4 °F 75.4 °F 29.96 in WNW 4.6 mph 1.8 mph 77% 0 in 510.00 W/m2
13:49 84.2 °F 75.8 °F 29.96 in WSW 3.5 mph 2.2 mph 76% 0 in 394.00 W/m2
13:54 84.1 °F 75.3 °F 29.96 in SW 4.6 mph 3.7 mph 75% 0 in 353.00 W/m2
13:59 83.9 °F 75.1 °F 29.96 in WSW 4.6 mph 3.2 mph 75% 0 in 313.00 W/m2
14:04 83.1 °F 74.7 °F 29.95 in West 4.6 mph 2.7 mph 76% 0 in 253.00 W/m2
14:09 83.2 °F 75.2 °F 29.95 in West 4 mph 1.8 mph 77% 0 in 350.00 W/m2
14:14 82.7 °F 75.1 °F 29.95 in West 1.2 mph 0.3 mph 78% 0 in 192.00 W/m2
14:19 82.4 °F 74.8 °F 29.95 in West 4 mph 1.6 mph 78% 0 in 200.00 W/m2
14:24 82.2 °F 74.7 °F 29.94 in West 5.8 mph 2 mph 78% 0 in 141.00 W/m2
14:29 81.9 °F 74.7 °F 29.94 in West 3.5 mph 1.6 mph 79% 0 in 125.00 W/m2
14:34 82.2 °F 76.5 °F 29.94 in WSW 3.5 mph 2.4 mph 83% 0 in 51.00 W/m2
14:39 80 °F 74.7 °F 29.96 in SW 10.4 mph 4.9 mph 84% 0.09 in 47.00 W/m2
14:44 76.1 °F 72.6 °F 29.94 in WSW 2.3 mph 0.8 mph 89% 0.25 in 216.00 W/m2
14:49 75.2 °F 73 °F 29.94 in Calm     93% 0.26 in 367.00 W/m2
14:54 76.2 °F 74.3 °F 29.94 in Calm     94% 0.26 in 413.00 W/m2
14:59 76.7 °F 74.5 °F 29.94 in West 3.5 mph 0.8 mph 93% 0.26 in 392.00 W/m2
15:04 76.2 °F 74.3 °F 29.94 in West 3.5 mph 1.6 mph 94% 0.26 in 420.00 W/m2
15:09 77 °F 75.5 °F 29.93 in West 2.3 mph 0.1 mph 95% 0.26 in 299.00 W/m2
15:14 78.5 °F 76.9 °F 29.93 in WSW 3.5 mph 0.5 mph 95% 0.26 in 330.00 W/m2
15:19 80.2 °F 78 °F 29.93 in SW 4.6 mph 1.9 mph 93% 0.26 in 294.00 W/m2
15:24 80.9 °F 77.7 °F 29.93 in WSW 4.6 mph 2.6 mph 90% 0.26 in 359.00 W/m2
15:29 81.1 °F 76.5 °F 29.93 in WSW 5.8 mph 4.5 mph 86% 0.26 in 490.00 W/m2
15:34 81.9 °F 77.3 °F 29.92 in WNW 5.8 mph 2.6 mph 86% 0.26 in 679.00 W/m2
15:39 81.8 °F 77.2 °F 29.92 in WSW 6 mph 3.9 mph 86% 0.17 in 339.00 W/m2
15:44 82.3 °F 77.3 °F 29.92 in WSW 8.1 mph 2.7 mph 85% 0.01 in 1021.00 W/m2
15:49 82.3 °F 77 °F 29.91 in West 10.4 mph 2.6 mph 84% 0 in 355.00 W/m2
15:54 82.2 °F 77.6 °F 29.91 in West 3.5 mph 1.2 mph 86% 0 in 969.00 W/m2
15:59 83.5 °F 77.1 °F 29.91 in WSW 5.8 mph 4.2 mph 81% 0 in 863.00 W/m2
16:04 83.1 °F 77 °F 29.90 in WSW 4.6 mph 3.7 mph 82% 0 in 237.00 W/m2
16:09 82.5 °F 76.4 °F 29.91 in SW 8.1 mph 3.9 mph 82% 0 in 241.00 W/m2
16:14 82.2 °F 76.9 °F 29.91 in West 4.6 mph 1.7 mph 84% 0 in 237.00 W/m2
16:19 81.9 °F 76.9 °F 29.91 in West 4 mph 1.9 mph 85% 0 in 355.00 W/m2
16:24 81.9 °F 76.9 °F 29.91 in South 4.6 mph 2.7 mph 85% 0 in 441.00 W/m2
16:29 82.3 °F 77 °F 29.91 in SW 3.5 mph 3 mph 84% 0 in 496.00 W/m2
16:34 82.8 °F 77.1 °F 29.90 in South 5.8 mph 1.6 mph 83% 0 in 809.00 W/m2
16:39 83.7 °F 77.6 °F 29.91 in SSW 9 mph 2.6 mph 82% 0 in 251.00 W/m2
16:44 82.3 °F 75.1 °F 29.91 in South 10.4 mph 3.7 mph 79% 0 in 172.00 W/m2
16:49 80.7 °F 74.3 °F 29.90 in South 3.5 mph 2.3 mph 81% 0 in 128.00 W/m2
16:54 79.8 °F 74.5 °F 29.90 in SW 2.3 mph 0.4 mph 84% 0 in 265.00 W/m2
16:59 80.7 °F 74.7 °F 29.89 in SSE 4.6 mph 1.7 mph 82% 0 in 162.00 W/m2
17:04 81 °F 74.6 °F 29.89 in WSW 3.5 mph 1.7 mph 81% 0 in 114.00 W/m2
17:09 80.7 °F 75.4 °F 29.89 in SSW 1.2 mph 0.4 mph 84% 0 in 628.00 W/m2
17:14 82.2 °F 75.8 °F 29.89 in West 3.5 mph 2.2 mph 81% 0 in 563.00 W/m2
17:19 82.3 °F 75.9 °F 29.89 in West 3.5 mph 2.6 mph 81% 0 in 504.00 W/m2
17:24 82.4 °F 76.3 °F 29.89 in SSW 5.8 mph 2.6 mph 82% 0 in 220.00 W/m2
17:29 81.8 °F 76.1 °F 29.89 in WSW 2.3 mph 0.9 mph 83% 0 in 211.00 W/m2
17:34 81.6 °F 75.9 °F 29.88 in West 3.5 mph 1.9 mph 83% 0 in 135.00 W/m2
17:39 81.7 °F 76 °F 29.88 in West 5.8 mph 2.8 mph 83% 0 in 172.00 W/m2
17:44 81.9 °F 76.2 °F 29.88 in West 5 mph 3.7 mph 83% 0 in 475.00 W/m2
17:49 82.5 °F 76.8 °F 29.89 in SW 3.5 mph 1.6 mph 83% 0 in 452.00 W/m2
Soleil - Laurel Canyon
Compliments of Weather Underground - 2.75 mb